sensor_id;sensor_type;location;lat;lon;timestamp;P1;durP1;ratioP1;P2;durP2;ratioP2
55222;SDS011;41090;48.632;12.428;2023-12-14T00:05:38;5.73;;;5.23;;
55222;SDS011;41090;48.632;12.428;2023-12-14T00:08:06;5.50;;;5.00;;
55222;SDS011;41090;48.632;12.428;2023-12-14T00:15:52;4.67;;;4.27;;
55222;SDS011;41090;48.632;12.428;2023-12-14T00:20:48;4.80;;;4.40;;
55222;SDS011;41090;48.632;12.428;2023-12-14T00:23:15;4.77;;;4.37;;
55222;SDS011;41090;48.632;12.428;2023-12-14T00:25:40;4.47;;;4.07;;
55222;SDS011;41090;48.632;12.428;2023-12-14T00:28:05;4.27;;;3.87;;
55222;SDS011;41090;48.632;12.428;2023-12-14T00:30:31;4.40;;;4.00;;
55222;SDS011;41090;48.632;12.428;2023-12-14T00:32:57;5.07;;;3.97;;
55222;SDS011;41090;48.632;12.428;2023-12-14T00:35:22;4.17;;;3.83;;
55222;SDS011;41090;48.632;12.428;2023-12-14T00:37:48;3.87;;;3.57;;
55222;SDS011;41090;48.632;12.428;2023-12-14T00:40:13;3.47;;;3.27;;
55222;SDS011;41090;48.632;12.428;2023-12-14T00:42:38;3.80;;;3.50;;
55222;SDS011;41090;48.632;12.428;2023-12-14T00:45:04;3.40;;;3.10;;
55222;SDS011;41090;48.632;12.428;2023-12-14T00:47:32;4.23;;;3.20;;
55222;SDS011;41090;48.632;12.428;2023-12-14T00:49:57;3.67;;;3.37;;
55222;SDS011;41090;48.632;12.428;2023-12-14T00:52:23;4.03;;;3.63;;
55222;SDS011;41090;48.632;12.428;2023-12-14T00:54:48;3.60;;;3.30;;
55222;SDS011;41090;48.632;12.428;2023-12-14T00:57:13;3.70;;;3.30;;
55222;SDS011;41090;48.632;12.428;2023-12-14T00:59:39;4.10;;;3.00;;
55222;SDS011;41090;48.632;12.428;2023-12-14T01:02:05;3.50;;;3.20;;
55222;SDS011;41090;48.632;12.428;2023-12-14T01:04:31;3.47;;;3.27;;
55222;SDS011;41090;48.632;12.428;2023-12-14T01:06:56;3.70;;;3.40;;
55222;SDS011;41090;48.632;12.428;2023-12-14T01:09:21;3.70;;;3.40;;
55222;SDS011;41090;48.632;12.428;2023-12-14T01:11:47;3.77;;;3.47;;
55222;SDS011;41090;48.632;12.428;2023-12-14T01:14:12;3.60;;;3.30;;
55222;SDS011;41090;48.632;12.428;2023-12-14T01:16:38;3.93;;;3.63;;
55222;SDS011;41090;48.632;12.428;2023-12-14T01:19:03;3.73;;;3.43;;
55222;SDS011;41090;48.632;12.428;2023-12-14T01:21:30;3.50;;;3.20;;
55222;SDS011;41090;48.632;12.428;2023-12-14T01:23:56;3.40;;;3.10;;
55222;SDS011;41090;48.632;12.428;2023-12-14T01:26:21;3.27;;;2.97;;
55222;SDS011;41090;48.632;12.428;2023-12-14T01:28:47;3.27;;;2.97;;
55222;SDS011;41090;48.632;12.428;2023-12-14T01:31:12;3.60;;;3.20;;
55222;SDS011;41090;48.632;12.428;2023-12-14T01:33:38;4.33;;;3.40;;
55222;SDS011;41090;48.632;12.428;2023-12-14T01:36:03;3.73;;;2.90;;
55222;SDS011;41090;48.632;12.428;2023-12-14T01:38:28;3.43;;;3.13;;
55222;SDS011;41090;48.632;12.428;2023-12-14T01:40:54;3.63;;;3.20;;
55222;SDS011;41090;48.632;12.428;2023-12-14T01:43:21;3.23;;;3.03;;
55222;SDS011;41090;48.632;12.428;2023-12-14T01:45:46;3.60;;;3.30;;
55222;SDS011;41090;48.632;12.428;2023-12-14T01:48:12;3.20;;;3.00;;
55222;SDS011;41090;48.632;12.428;2023-12-14T01:50:37;4.00;;;3.70;;
55222;SDS011;41090;48.632;12.428;2023-12-14T01:53:03;4.23;;;3.93;;
55222;SDS011;41090;48.632;12.428;2023-12-14T01:55:28;4.63;;;4.00;;
55222;SDS011;41090;48.632;12.428;2023-12-14T01:57:54;4.60;;;4.20;;
55222;SDS011;41090;48.632;12.428;2023-12-14T02:03:03;4.30;;;3.90;;
55222;SDS011;41090;48.632;12.428;2023-12-14T02:05:29;4.43;;;4.00;;
55222;SDS011;41090;48.632;12.428;2023-12-14T02:07:54;4.10;;;3.80;;
55222;SDS011;41090;48.632;12.428;2023-12-14T02:10:19;4.10;;;3.80;;
55222;SDS011;41090;48.632;12.428;2023-12-14T02:12:44;4.20;;;3.90;;
55222;SDS011;41090;48.632;12.428;2023-12-14T02:15:10;4.63;;;4.00;;
55222;SDS011;41090;48.632;12.428;2023-12-14T02:17:35;4.73;;;4.00;;
55222;SDS011;41090;48.632;12.428;2023-12-14T02:20:00;4.23;;;3.80;;
55222;SDS011;41090;48.632;12.428;2023-12-14T02:22:26;4.83;;;4.43;;
55222;SDS011;41090;48.632;12.428;2023-12-14T02:24:51;4.60;;;4.20;;
55222;SDS011;41090;48.632;12.428;2023-12-14T02:27:17;5.17;;;4.30;;
55222;SDS011;41090;48.632;12.428;2023-12-14T02:29:42;4.70;;;4.30;;
55222;SDS011;41090;48.632;12.428;2023-12-14T02:32:07;5.23;;;4.73;;
55222;SDS011;41090;48.632;12.428;2023-12-14T02:34:32;4.50;;;4.10;;
55222;SDS011;41090;48.632;12.428;2023-12-14T02:36:58;4.70;;;4.30;;
55222;SDS011;41090;48.632;12.428;2023-12-14T02:39:23;4.80;;;4.40;;
55222;SDS011;41090;48.632;12.428;2023-12-14T02:41:48;5.03;;;4.63;;
55222;SDS011;41090;48.632;12.428;2023-12-14T02:44:14;4.70;;;4.30;;
55222;SDS011;41090;48.632;12.428;2023-12-14T02:46:39;4.70;;;4.30;;
55222;SDS011;41090;48.632;12.428;2023-12-14T02:49:04;4.30;;;3.90;;
55222;SDS011;41090;48.632;12.428;2023-12-14T02:51:29;4.70;;;4.30;;
55222;SDS011;41090;48.632;12.428;2023-12-14T02:53:55;5.77;;;4.80;;
55222;SDS011;41090;48.632;12.428;2023-12-14T02:56:22;5.13;;;4.63;;
55222;SDS011;41090;48.632;12.428;2023-12-14T02:58:47;5.10;;;4.60;;
55222;SDS011;41090;48.632;12.428;2023-12-14T03:01:18;4.53;;;4.13;;
55222;SDS011;41090;48.632;12.428;2023-12-14T03:03:43;4.80;;;4.40;;
55222;SDS011;41090;48.632;12.428;2023-12-14T03:06:08;4.87;;;4.40;;
55222;SDS011;41090;48.632;12.428;2023-12-14T03:08:34;4.90;;;4.50;;
55222;SDS011;41090;48.632;12.428;2023-12-14T03:10:59;4.93;;;4.47;;
55222;SDS011;41090;48.632;12.428;2023-12-14T03:13:25;4.97;;;4.47;;
55222;SDS011;41090;48.632;12.428;2023-12-14T03:15:50;5.00;;;4.43;;
55222;SDS011;41090;48.632;12.428;2023-12-14T03:18:16;4.53;;;4.13;;
55222;SDS011;41090;48.632;12.428;2023-12-14T03:20:41;4.60;;;4.23;;
55222;SDS011;41090;48.632;12.428;2023-12-14T03:23:06;4.93;;;4.53;;
55222;SDS011;41090;48.632;12.428;2023-12-14T03:25:32;5.40;;;4.70;;
55222;SDS011;41090;48.632;12.428;2023-12-14T03:27:57;5.70;;;4.60;;
55222;SDS011;41090;48.632;12.428;2023-12-14T03:30:23;5.20;;;4.70;;
55222;SDS011;41090;48.632;12.428;2023-12-14T03:32:48;6.23;;;5.20;;
55222;SDS011;41090;48.632;12.428;2023-12-14T03:35:13;5.50;;;5.00;;
55222;SDS011;41090;48.632;12.428;2023-12-14T03:37:39;5.40;;;4.37;;
55222;SDS011;41090;48.632;12.428;2023-12-14T03:40:04;5.93;;;5.30;;
55222;SDS011;41090;48.632;12.428;2023-12-14T03:42:30;5.00;;;4.57;;
55222;SDS011;41090;48.632;12.428;2023-12-14T03:44:55;6.20;;;5.60;;
55222;SDS011;41090;48.632;12.428;2023-12-14T03:47:20;5.03;;;4.63;;
55222;SDS011;41090;48.632;12.428;2023-12-14T03:49:49;5.80;;;5.30;;
55222;SDS011;41090;48.632;12.428;2023-12-14T03:52:15;5.90;;;5.37;;
55222;SDS011;41090;48.632;12.428;2023-12-14T03:54:40;6.67;;;5.97;;
55222;SDS011;41090;48.632;12.428;2023-12-14T03:57:06;6.60;;;6.00;;
55222;SDS011;41090;48.632;12.428;2023-12-14T03:59:32;8.00;;;5.60;;
55222;SDS011;41090;48.632;12.428;2023-12-14T04:01:57;6.43;;;5.83;;
55222;SDS011;41090;48.632;12.428;2023-12-14T04:04:23;7.40;;;5.93;;
55222;SDS011;41090;48.632;12.428;2023-12-14T04:06:49;6.80;;;6.00;;
55222;SDS011;41090;48.632;12.428;2023-12-14T04:09:14;6.00;;;5.50;;
55222;SDS011;41090;48.632;12.428;2023-12-14T04:12:00;6.30;;;5.70;;
55222;SDS011;41090;48.632;12.428;2023-12-14T04:14:26;6.43;;;5.60;;
55222;SDS011;41090;48.632;12.428;2023-12-14T04:16:51;6.67;;;5.77;;
55222;SDS011;41090;48.632;12.428;2023-12-14T04:19:17;6.20;;;5.60;;
55222;SDS011;41090;48.632;12.428;2023-12-14T04:21:47;6.50;;;5.87;;
55222;SDS011;41090;48.632;12.428;2023-12-14T04:24:13;6.97;;;5.90;;
55222;SDS011;41090;48.632;12.428;2023-12-14T04:26:39;7.47;;;5.90;;
55222;SDS011;41090;48.632;12.428;2023-12-14T04:29:10;6.50;;;5.90;;
55222;SDS011;41090;48.632;12.428;2023-12-14T04:31:38;6.83;;;6.13;;
55222;SDS011;41090;48.632;12.428;2023-12-14T04:34:11;7.67;;;6.10;;
55222;SDS011;41090;48.632;12.428;2023-12-14T04:36:44;7.43;;;6.10;;
55222;SDS011;41090;48.632;12.428;2023-12-14T04:39:10;7.03;;;6.27;;
55222;SDS011;41090;48.632;12.428;2023-12-14T04:41:41;7.80;;;6.47;;
55222;SDS011;41090;48.632;12.428;2023-12-14T04:44:07;7.60;;;6.87;;
55222;SDS011;41090;48.632;12.428;2023-12-14T04:46:35;7.43;;;6.73;;
55222;SDS011;41090;48.632;12.428;2023-12-14T04:49:03;7.93;;;7.13;;
55222;SDS011;41090;48.632;12.428;2023-12-14T04:51:28;8.93;;;7.43;;
55222;SDS011;41090;48.632;12.428;2023-12-14T04:54:00;9.27;;;8.37;;
55222;SDS011;41090;48.632;12.428;2023-12-14T04:56:34;8.93;;;8.03;;
55222;SDS011;41090;48.632;12.428;2023-12-14T04:59:05;9.03;;;8.23;;
55222;SDS011;41090;48.632;12.428;2023-12-14T05:01:30;9.37;;;8.33;;
55222;SDS011;41090;48.632;12.428;2023-12-14T05:03:55;9.87;;;8.47;;
55222;SDS011;41090;48.632;12.428;2023-12-14T05:06:21;9.53;;;8.63;;
55222;SDS011;41090;48.632;12.428;2023-12-14T05:08:46;12.53;;;9.63;;
55222;SDS011;41090;48.632;12.428;2023-12-14T05:11:12;11.07;;;9.97;;
55222;SDS011;41090;48.632;12.428;2023-12-14T05:13:37;11.60;;;10.40;;
55222;SDS011;41090;48.632;12.428;2023-12-14T05:16:03;12.23;;;11.03;;
55222;SDS011;41090;48.632;12.428;2023-12-14T05:18:28;13.50;;;11.10;;
55222;SDS011;41090;48.632;12.428;2023-12-14T05:20:54;12.70;;;11.40;;
55222;SDS011;41090;48.632;12.428;2023-12-14T05:23:20;12.33;;;11.13;;
55222;SDS011;41090;48.632;12.428;2023-12-14T05:25:45;14.20;;;12.13;;
55222;SDS011;41090;48.632;12.428;2023-12-14T05:28:10;12.33;;;11.03;;
55222;SDS011;41090;48.632;12.428;2023-12-14T05:30:36;13.83;;;12.43;;
55222;SDS011;41090;48.632;12.428;2023-12-14T05:33:01;13.10;;;11.77;;
55222;SDS011;41090;48.632;12.428;2023-12-14T05:35:27;14.30;;;12.63;;
55222;SDS011;41090;48.632;12.428;2023-12-14T05:37:52;13.50;;;12.10;;
55222;SDS011;41090;48.632;12.428;2023-12-14T05:40:17;14.00;;;12.60;;
55222;SDS011;41090;48.632;12.428;2023-12-14T05:42:43;13.80;;;12.37;;
55222;SDS011;41090;48.632;12.428;2023-12-14T05:45:08;13.63;;;12.23;;
55222;SDS011;41090;48.632;12.428;2023-12-14T05:47:34;14.10;;;12.70;;
55222;SDS011;41090;48.632;12.428;2023-12-14T05:50:00;13.83;;;12.43;;
55222;SDS011;41090;48.632;12.428;2023-12-14T05:52:25;14.37;;;12.87;;
55222;SDS011;41090;48.632;12.428;2023-12-14T05:54:50;14.20;;;12.80;;
55222;SDS011;41090;48.632;12.428;2023-12-14T05:57:16;14.40;;;13.00;;
55222;SDS011;41090;48.632;12.428;2023-12-14T05:59:41;14.50;;;13.10;;
55222;SDS011;41090;48.632;12.428;2023-12-14T06:02:06;14.57;;;13.07;;
55222;SDS011;41090;48.632;12.428;2023-12-14T06:04:31;14.93;;;13.43;;
55222;SDS011;41090;48.632;12.428;2023-12-14T06:06:57;14.63;;;13.03;;
55222;SDS011;41090;48.632;12.428;2023-12-14T06:09:22;14.90;;;13.40;;
55222;SDS011;41090;48.632;12.428;2023-12-14T06:11:57;15.83;;;13.70;;
55222;SDS011;41090;48.632;12.428;2023-12-14T06:14:23;15.43;;;13.83;;
55222;SDS011;41090;48.632;12.428;2023-12-14T06:16:48;15.80;;;14.00;;
55222;SDS011;41090;48.632;12.428;2023-12-14T06:19:13;16.37;;;14.77;;
55222;SDS011;41090;48.632;12.428;2023-12-14T06:21:39;14.70;;;13.20;;
55222;SDS011;41090;48.632;12.428;2023-12-14T06:24:05;16.80;;;15.00;;
55222;SDS011;41090;48.632;12.428;2023-12-14T06:26:30;16.13;;;14.43;;
55222;SDS011;41090;48.632;12.428;2023-12-14T06:28:55;16.07;;;14.37;;
55222;SDS011;41090;48.632;12.428;2023-12-14T06:31:24;15.33;;;13.57;;
55222;SDS011;41090;48.632;12.428;2023-12-14T06:33:49;17.73;;;15.83;;
55222;SDS011;41090;48.632;12.428;2023-12-14T06:36:17;17.27;;;15.47;;
55222;SDS011;41090;48.632;12.428;2023-12-14T06:38:43;15.90;;;14.30;;
55222;SDS011;41090;48.632;12.428;2023-12-14T06:41:08;15.63;;;13.80;;
55222;SDS011;41090;48.632;12.428;2023-12-14T06:43:34;16.80;;;14.97;;
55222;SDS011;41090;48.632;12.428;2023-12-14T06:45:59;16.30;;;14.60;;
55222;SDS011;41090;48.632;12.428;2023-12-14T06:48:24;17.13;;;15.20;;
55222;SDS011;41090;48.632;12.428;2023-12-14T06:50:50;17.67;;;15.73;;
55222;SDS011;41090;48.632;12.428;2023-12-14T06:53:15;18.53;;;15.77;;
55222;SDS011;41090;48.632;12.428;2023-12-14T06:55:41;17.27;;;14.63;;
55222;SDS011;41090;48.632;12.428;2023-12-14T06:58:06;19.03;;;17.03;;
55222;SDS011;41090;48.632;12.428;2023-12-14T07:00:36;17.03;;;15.23;;
55222;SDS011;41090;48.632;12.428;2023-12-14T07:03:01;17.20;;;15.40;;
55222;SDS011;41090;48.632;12.428;2023-12-14T07:05:26;18.03;;;16.23;;
55222;SDS011;41090;48.632;12.428;2023-12-14T07:07:52;19.23;;;17.27;;
55222;SDS011;41090;48.632;12.428;2023-12-14T07:10:17;19.13;;;16.40;;
55222;SDS011;41090;48.632;12.428;2023-12-14T07:12:42;16.60;;;14.90;;
55222;SDS011;41090;48.632;12.428;2023-12-14T07:15:08;17.43;;;15.63;;
55222;SDS011;41090;48.632;12.428;2023-12-14T07:17:33;17.40;;;15.50;;
55222;SDS011;41090;48.632;12.428;2023-12-14T07:19:59;16.67;;;14.97;;
55222;SDS011;41090;48.632;12.428;2023-12-14T07:22:24;18.53;;;16.53;;
55222;SDS011;41090;48.632;12.428;2023-12-14T07:24:57;18.73;;;16.80;;
55222;SDS011;41090;48.632;12.428;2023-12-14T07:27:23;19.10;;;17.10;;
55222;SDS011;41090;48.632;12.428;2023-12-14T07:29:54;22.40;;;19.23;;
55222;SDS011;41090;48.632;12.428;2023-12-14T07:32:22;19.40;;;17.17;;
55222;SDS011;41090;48.632;12.428;2023-12-14T07:34:48;21.20;;;18.70;;
55222;SDS011;41090;48.632;12.428;2023-12-14T07:37:14;20.50;;;18.30;;
55222;SDS011;41090;48.632;12.428;2023-12-14T07:39:42;24.57;;;21.53;;
55222;SDS011;41090;48.632;12.428;2023-12-14T07:42:07;18.97;;;16.93;;
55222;SDS011;41090;48.632;12.428;2023-12-14T07:44:33;20.03;;;16.13;;
55222;SDS011;41090;48.632;12.428;2023-12-14T07:47:00;17.30;;;15.13;;
55222;SDS011;41090;48.632;12.428;2023-12-14T07:49:28;18.27;;;15.87;;
55222;SDS011;41090;48.632;12.428;2023-12-14T07:51:53;17.90;;;15.83;;
55222;SDS011;41090;48.632;12.428;2023-12-14T07:54:19;17.67;;;15.87;;
55222;SDS011;41090;48.632;12.428;2023-12-14T07:56:44;18.67;;;15.57;;
55222;SDS011;41090;48.632;12.428;2023-12-14T07:59:10;17.37;;;14.90;;
55222;SDS011;41090;48.632;12.428;2023-12-14T08:01:36;19.10;;;16.07;;
55222;SDS011;41090;48.632;12.428;2023-12-14T08:04:04;18.37;;;15.93;;
55222;SDS011;41090;48.632;12.428;2023-12-14T08:06:30;18.87;;;15.43;;
55222;SDS011;41090;48.632;12.428;2023-12-14T08:08:57;18.17;;;16.23;;
55222;SDS011;41090;48.632;12.428;2023-12-14T08:11:23;19.33;;;16.80;;
55222;SDS011;41090;48.632;12.428;2023-12-14T08:13:49;18.03;;;16.13;;
55222;SDS011;41090;48.632;12.428;2023-12-14T08:16:14;17.50;;;15.17;;
55222;SDS011;41090;48.632;12.428;2023-12-14T08:18:42;16.13;;;14.47;;
55222;SDS011;41090;48.632;12.428;2023-12-14T08:21:09;17.57;;;14.97;;
55222;SDS011;41090;48.632;12.428;2023-12-14T08:23:35;21.37;;;15.30;;
55222;SDS011;41090;48.632;12.428;2023-12-14T08:26:03;15.87;;;14.17;;
55222;SDS011;41090;48.632;12.428;2023-12-14T08:28:29;16.33;;;14.37;;
55222;SDS011;41090;48.632;12.428;2023-12-14T08:30:54;16.00;;;14.30;;
55222;SDS011;41090;48.632;12.428;2023-12-14T08:33:20;16.13;;;14.33;;
55222;SDS011;41090;48.632;12.428;2023-12-14T08:35:46;14.77;;;13.13;;
55222;SDS011;41090;48.632;12.428;2023-12-14T08:38:11;14.73;;;13.23;;
55222;SDS011;41090;48.632;12.428;2023-12-14T08:40:37;15.67;;;13.50;;
55222;SDS011;41090;48.632;12.428;2023-12-14T08:43:03;16.50;;;14.03;;
55222;SDS011;41090;48.632;12.428;2023-12-14T08:45:28;15.50;;;13.87;;
55222;SDS011;41090;48.632;12.428;2023-12-14T08:47:54;15.43;;;13.93;;
55222;SDS011;41090;48.632;12.428;2023-12-14T08:50:19;13.43;;;12.03;;
55222;SDS011;41090;48.632;12.428;2023-12-14T08:52:45;13.57;;;12.27;;
55222;SDS011;41090;48.632;12.428;2023-12-14T08:55:10;12.87;;;11.67;;
55222;SDS011;41090;48.632;12.428;2023-12-14T08:57:36;12.23;;;11.00;;
55222;SDS011;41090;48.632;12.428;2023-12-14T09:00:01;12.20;;;10.90;;
55222;SDS011;41090;48.632;12.428;2023-12-14T09:02:29;11.97;;;10.73;;
55222;SDS011;41090;48.632;12.428;2023-12-14T09:04:55;11.20;;;10.10;;
55222;SDS011;41090;48.632;12.428;2023-12-14T09:07:20;10.00;;;9.20;;
55222;SDS011;41090;48.632;12.428;2023-12-14T09:09:45;10.87;;;9.87;;
55222;SDS011;41090;48.632;12.428;2023-12-14T09:12:10;12.90;;;11.70;;
55222;SDS011;41090;48.632;12.428;2023-12-14T09:14:37;15.20;;;13.67;;
55222;SDS011;41090;48.632;12.428;2023-12-14T09:17:02;10.93;;;10.03;;
55222;SDS011;41090;48.632;12.428;2023-12-14T09:19:29;11.57;;;10.63;;
55222;SDS011;41090;48.632;12.428;2023-12-14T09:21:54;13.17;;;11.97;;
55222;SDS011;41090;48.632;12.428;2023-12-14T09:24:20;17.27;;;15.80;;
55222;SDS011;41090;48.632;12.428;2023-12-14T09:26:45;12.00;;;11.00;;
55222;SDS011;41090;48.632;12.428;2023-12-14T09:29:10;15.57;;;14.10;;
55222;SDS011;41090;48.632;12.428;2023-12-14T09:31:36;18.73;;;16.93;;
55222;SDS011;41090;48.632;12.428;2023-12-14T09:34:01;15.17;;;13.83;;
55222;SDS011;41090;48.632;12.428;2023-12-14T09:36:26;18.40;;;16.57;;
55222;SDS011;41090;48.632;12.428;2023-12-14T09:38:51;22.27;;;20.07;;
55222;SDS011;41090;48.632;12.428;2023-12-14T09:41:17;25.17;;;22.60;;
55222;SDS011;41090;48.632;12.428;2023-12-14T09:43:42;27.60;;;24.80;;
55222;SDS011;41090;48.632;12.428;2023-12-14T09:46:08;18.63;;;16.73;;
55222;SDS011;41090;48.632;12.428;2023-12-14T09:48:34;13.00;;;11.80;;
55222;SDS011;41090;48.632;12.428;2023-12-14T09:50:59;14.83;;;13.40;;
55222;SDS011;41090;48.632;12.428;2023-12-14T09:53:25;12.77;;;11.67;;
55222;SDS011;41090;48.632;12.428;2023-12-14T09:55:50;12.87;;;11.57;;
55222;SDS011;41090;48.632;12.428;2023-12-14T09:58:15;24.23;;;21.73;;
55222;SDS011;41090;48.632;12.428;2023-12-14T10:00:41;15.13;;;13.63;;
55222;SDS011;41090;48.632;12.428;2023-12-14T10:03:21;17.77;;;15.97;;
55222;SDS011;41090;48.632;12.428;2023-12-14T10:05:47;20.50;;;18.33;;
55222;SDS011;41090;48.632;12.428;2023-12-14T10:08:13;10.33;;;9.33;;
55222;SDS011;41090;48.632;12.428;2023-12-14T10:10:39;11.93;;;10.87;;
55222;SDS011;41090;48.632;12.428;2023-12-14T10:13:04;11.07;;;10.17;;
55222;SDS011;41090;48.632;12.428;2023-12-14T10:15:29;10.07;;;9.17;;
55222;SDS011;41090;48.632;12.428;2023-12-14T10:17:55;10.40;;;9.50;;
55222;SDS011;41090;48.632;12.428;2023-12-14T10:20:20;10.73;;;9.03;;
55222;SDS011;41090;48.632;12.428;2023-12-14T10:22:51;9.37;;;8.47;;
55222;SDS011;41090;48.632;12.428;2023-12-14T10:25:18;9.23;;;8.50;;
55222;SDS011;41090;48.632;12.428;2023-12-14T10:27:45;9.13;;;8.27;;
55222;SDS011;41090;48.632;12.428;2023-12-14T10:30:11;8.33;;;7.63;;
55222;SDS011;41090;48.632;12.428;2023-12-14T10:32:37;9.63;;;8.73;;
55222;SDS011;41090;48.632;12.428;2023-12-14T10:35:03;9.80;;;8.93;;
55222;SDS011;41090;48.632;12.428;2023-12-14T10:37:28;9.60;;;8.80;;
55222;SDS011;41090;48.632;12.428;2023-12-14T10:39:54;10.30;;;9.40;;
55222;SDS011;41090;48.632;12.428;2023-12-14T10:42:21;10.30;;;9.40;;
55222;SDS011;41090;48.632;12.428;2023-12-14T10:44:48;10.30;;;9.40;;
55222;SDS011;41090;48.632;12.428;2023-12-14T10:47:14;9.67;;;8.87;;
55222;SDS011;41090;48.632;12.428;2023-12-14T10:49:40;9.97;;;9.07;;
55222;SDS011;41090;48.632;12.428;2023-12-14T10:52:06;9.87;;;8.97;;
55222;SDS011;41090;48.632;12.428;2023-12-14T10:54:32;9.73;;;8.83;;
55222;SDS011;41090;48.632;12.428;2023-12-14T10:57:00;9.20;;;8.40;;
55222;SDS011;41090;48.632;12.428;2023-12-14T10:59:25;8.83;;;8.03;;
55222;SDS011;41090;48.632;12.428;2023-12-14T11:01:51;8.30;;;7.50;;
55222;SDS011;41090;48.632;12.428;2023-12-14T11:04:18;7.87;;;7.23;;
55222;SDS011;41090;48.632;12.428;2023-12-14T11:06:44;7.63;;;6.93;;
55222;SDS011;41090;48.632;12.428;2023-12-14T11:09:13;7.30;;;6.67;;
55222;SDS011;41090;48.632;12.428;2023-12-14T11:11:41;7.43;;;6.47;;
55222;SDS011;41090;48.632;12.428;2023-12-14T11:14:10;7.13;;;6.50;;
55222;SDS011;41090;48.632;12.428;2023-12-14T11:16:35;7.40;;;6.70;;
55222;SDS011;41090;48.632;12.428;2023-12-14T11:21:46;6.43;;;5.77;;
55222;SDS011;41090;48.632;12.428;2023-12-14T11:24:11;6.90;;;6.30;;
55222;SDS011;41090;48.632;12.428;2023-12-14T11:26:37;6.97;;;6.20;;
55222;SDS011;41090;48.632;12.428;2023-12-14T11:29:02;7.17;;;6.47;;
55222;SDS011;41090;48.632;12.428;2023-12-14T11:31:29;6.97;;;6.27;;
55222;SDS011;41090;48.632;12.428;2023-12-14T11:33:54;6.60;;;6.00;;
55222;SDS011;41090;48.632;12.428;2023-12-14T11:36:21;6.77;;;6.07;;
55222;SDS011;41090;48.632;12.428;2023-12-14T11:38:47;6.77;;;6.17;;
55222;SDS011;41090;48.632;12.428;2023-12-14T11:41:13;7.13;;;6.50;;
55222;SDS011;41090;48.632;12.428;2023-12-14T11:43:39;6.70;;;5.90;;
55222;SDS011;41090;48.632;12.428;2023-12-14T11:46:04;6.67;;;5.97;;
55222;SDS011;41090;48.632;12.428;2023-12-14T11:48:30;6.20;;;5.70;;
55222;SDS011;41090;48.632;12.428;2023-12-14T11:50:55;6.57;;;5.97;;
55222;SDS011;41090;48.632;12.428;2023-12-14T11:53:20;8.43;;;7.63;;
55222;SDS011;41090;48.632;12.428;2023-12-14T11:55:46;12.47;;;11.17;;
55222;SDS011;41090;48.632;12.428;2023-12-14T11:58:12;9.10;;;8.27;;
55222;SDS011;41090;48.632;12.428;2023-12-14T12:00:39;8.27;;;6.63;;
55222;SDS011;41090;48.632;12.428;2023-12-14T12:05:51;7.60;;;6.97;;
55222;SDS011;41090;48.632;12.428;2023-12-14T12:08:18;6.83;;;6.23;;
55222;SDS011;41090;48.632;12.428;2023-12-14T12:10:44;7.30;;;6.60;;
55222;SDS011;41090;48.632;12.428;2023-12-14T12:13:13;6.67;;;5.77;;
55222;SDS011;41090;48.632;12.428;2023-12-14T12:15:38;6.80;;;6.10;;
55222;SDS011;41090;48.632;12.428;2023-12-14T12:18:05;6.83;;;6.13;;
55222;SDS011;41090;48.632;12.428;2023-12-14T12:20:30;7.70;;;7.00;;
55222;SDS011;41090;48.632;12.428;2023-12-14T12:22:56;7.67;;;6.20;;
55222;SDS011;41090;48.632;12.428;2023-12-14T12:25:21;6.17;;;5.57;;
55222;SDS011;41090;48.632;12.428;2023-12-14T12:27:47;6.60;;;6.00;;
55222;SDS011;41090;48.632;12.428;2023-12-14T12:30:13;8.10;;;6.47;;
55222;SDS011;41090;48.632;12.428;2023-12-14T12:32:39;6.43;;;5.83;;
55222;SDS011;41090;48.632;12.428;2023-12-14T12:35:05;5.93;;;5.43;;
55222;SDS011;41090;48.632;12.428;2023-12-14T12:37:30;6.70;;;6.10;;
55222;SDS011;41090;48.632;12.428;2023-12-14T12:39:56;7.07;;;6.13;;
55222;SDS011;41090;48.632;12.428;2023-12-14T12:42:21;5.90;;;5.40;;
55222;SDS011;41090;48.632;12.428;2023-12-14T12:44:46;6.63;;;6.03;;
55222;SDS011;41090;48.632;12.428;2023-12-14T12:47:12;6.20;;;5.60;;
55222;SDS011;41090;48.632;12.428;2023-12-14T12:49:37;6.07;;;5.17;;
55222;SDS011;41090;48.632;12.428;2023-12-14T12:52:03;7.07;;;5.20;;
55222;SDS011;41090;48.632;12.428;2023-12-14T12:54:30;5.80;;;5.13;;
55222;SDS011;41090;48.632;12.428;2023-12-14T12:56:56;6.57;;;5.20;;
55222;SDS011;41090;48.632;12.428;2023-12-14T12:59:21;5.87;;;5.27;;
55222;SDS011;41090;48.632;12.428;2023-12-14T13:01:46;5.47;;;4.97;;
55222;SDS011;41090;48.632;12.428;2023-12-14T13:04:21;7.87;;;7.13;;
55222;SDS011;41090;48.632;12.428;2023-12-14T13:06:47;6.40;;;5.90;;
55222;SDS011;41090;48.632;12.428;2023-12-14T13:09:13;7.17;;;5.80;;
55222;SDS011;41090;48.632;12.428;2023-12-14T13:11:39;6.60;;;5.90;;
55222;SDS011;41090;48.632;12.428;2023-12-14T13:14:04;7.23;;;5.83;;
55222;SDS011;41090;48.632;12.428;2023-12-14T13:16:32;6.13;;;5.53;;
55222;SDS011;41090;48.632;12.428;2023-12-14T13:18:58;5.70;;;5.20;;
55222;SDS011;41090;48.632;12.428;2023-12-14T13:21:23;6.57;;;5.20;;
55222;SDS011;41090;48.632;12.428;2023-12-14T13:23:48;7.13;;;6.00;;
55222;SDS011;41090;48.632;12.428;2023-12-14T13:26:16;5.90;;;5.30;;
55222;SDS011;41090;48.632;12.428;2023-12-14T13:28:41;5.97;;;5.40;;
55222;SDS011;41090;48.632;12.428;2023-12-14T13:31:06;6.37;;;4.97;;
55222;SDS011;41090;48.632;12.428;2023-12-14T13:33:31;5.57;;;5.07;;
55222;SDS011;41090;48.632;12.428;2023-12-14T13:35:56;6.53;;;5.37;;
55222;SDS011;41090;48.632;12.428;2023-12-14T13:38:22;6.03;;;5.43;;
55222;SDS011;41090;48.632;12.428;2023-12-14T13:40:47;6.13;;;5.20;;
55222;SDS011;41090;48.632;12.428;2023-12-14T13:43:12;8.67;;;5.83;;
55222;SDS011;41090;48.632;12.428;2023-12-14T13:45:38;7.30;;;5.60;;
55222;SDS011;41090;48.632;12.428;2023-12-14T13:48:03;6.23;;;5.33;;
55222;SDS011;41090;48.632;12.428;2023-12-14T13:50:29;6.83;;;5.20;;
55222;SDS011;41090;48.632;12.428;2023-12-14T13:52:54;6.20;;;5.13;;
55222;SDS011;41090;48.632;12.428;2023-12-14T13:55:20;6.27;;;5.23;;
55222;SDS011;41090;48.632;12.428;2023-12-14T13:57:45;9.07;;;5.37;;
55222;SDS011;41090;48.632;12.428;2023-12-14T14:00:12;6.70;;;5.37;;
55222;SDS011;41090;48.632;12.428;2023-12-14T14:02:38;6.33;;;5.70;;
55222;SDS011;41090;48.632;12.428;2023-12-14T14:05:03;6.20;;;5.50;;
55222;SDS011;41090;48.632;12.428;2023-12-14T14:07:28;6.93;;;6.10;;
55222;SDS011;41090;48.632;12.428;2023-12-14T14:09:54;18.27;;;13.73;;
55222;SDS011;41090;48.632;12.428;2023-12-14T14:12:19;14.17;;;12.07;;
55222;SDS011;41090;48.632;12.428;2023-12-14T14:14:44;15.13;;;12.13;;
55222;SDS011;41090;48.632;12.428;2023-12-14T14:17:09;15.10;;;10.37;;
55222;SDS011;41090;48.632;12.428;2023-12-14T14:19:35;18.50;;;11.43;;
55222;SDS011;41090;48.632;12.428;2023-12-14T14:22:01;9.97;;;8.53;;
55222;SDS011;41090;48.632;12.428;2023-12-14T14:24:27;18.50;;;16.63;;
55222;SDS011;41090;48.632;12.428;2023-12-14T14:26:52;26.37;;;23.40;;
55222;SDS011;41090;48.632;12.428;2023-12-14T14:29:17;22.27;;;18.77;;
55222;SDS011;41090;48.632;12.428;2023-12-14T14:31:43;16.20;;;13.63;;
55222;SDS011;41090;48.632;12.428;2023-12-14T14:34:08;26.23;;;20.47;;
55222;SDS011;41090;48.632;12.428;2023-12-14T14:36:34;19.67;;;16.83;;